createdAt,value
2022-10-11T00:01:09.186Z,7.70
2022-10-11T00:03:37.091Z,7.70
2022-10-11T00:06:06.068Z,7.70
2022-10-11T00:08:34.569Z,7.60
2022-10-11T00:11:05.734Z,7.60
2022-10-11T00:13:35.342Z,7.60
2022-10-11T00:16:08.884Z,7.60
2022-10-11T00:18:36.962Z,7.60
2022-10-11T00:21:06.060Z,7.60
2022-10-11T00:23:34.359Z,7.60
2022-10-11T00:26:04.556Z,7.60
2022-10-11T00:28:34.701Z,7.60
2022-10-11T00:31:05.291Z,7.60
2022-10-11T00:33:33.321Z,7.50
2022-10-11T00:36:01.467Z,7.50
2022-10-11T00:38:31.893Z,7.50
2022-10-11T00:41:00.111Z,7.50
2022-10-11T00:43:30.687Z,7.50
2022-10-11T00:46:22.960Z,7.50
2022-10-11T00:48:55.607Z,7.50
2022-10-11T00:51:30.390Z,7.50
2022-10-11T00:54:01.111Z,7.40
2022-10-11T00:56:35.056Z,7.40
2022-10-11T00:59:06.803Z,7.30
2022-10-11T01:01:36.097Z,7.30
2022-10-11T01:04:04.169Z,7.80
2022-10-11T01:06:32.062Z,7.10
2022-10-11T01:09:00.201Z,7.60
2022-10-11T01:11:30.674Z,7.00
2022-10-11T01:14:11.898Z,7.30
2022-10-11T01:16:49.167Z,7.20
2022-10-11T03:15:10.180Z,5.90
2022-10-11T03:17:38.040Z,5.90
2022-10-11T03:20:07.460Z,6.60
2022-10-11T03:22:35.378Z,5.80
2022-10-11T03:25:04.640Z,5.80
2022-10-11T03:27:33.117Z,6.60
2022-10-11T03:30:01.015Z,5.80
2022-10-11T03:32:30.517Z,5.80
2022-10-11T03:34:58.534Z,5.70
2022-10-11T03:37:26.509Z,5.70
2022-10-11T03:39:54.549Z,5.70
2022-10-11T03:42:22.654Z,5.70
2022-10-11T03:44:51.933Z,5.70
2022-10-11T03:47:20.079Z,5.60
2022-10-11T03:49:49.301Z,5.90
2022-10-11T03:52:17.239Z,5.80
2022-10-11T03:54:45.071Z,5.60
2022-10-11T03:57:12.995Z,5.90
2022-10-11T03:59:40.811Z,6.20
2022-10-11T04:02:08.883Z,5.50
2022-10-11T04:04:36.780Z,5.50
2022-10-11T04:07:06.250Z,6.10
2022-10-11T04:09:34.320Z,6.50
2022-10-11T04:12:02.214Z,5.50
2022-10-11T04:14:30.127Z,6.80
2022-10-11T04:17:00.372Z,5.40
2022-10-11T04:19:28.943Z,5.40
2022-10-11T04:21:57.227Z,5.30
2022-10-11T04:24:26.488Z,6.60
2022-10-11T04:26:54.328Z,5.40
2022-10-11T04:29:22.215Z,6.10
2022-10-11T04:31:50.108Z,5.40
2022-10-11T04:34:18.201Z,6.60
2022-10-11T04:36:49.755Z,6.50
2022-10-11T04:39:18.128Z,5.40
2022-10-11T04:41:47.356Z,5.60
2022-10-11T04:44:15.221Z,5.40
2022-10-11T04:46:43.169Z,6.70
2022-10-11T04:49:11.108Z,5.80
2022-10-11T04:51:38.942Z,6.40
2022-10-11T04:54:06.910Z,5.80
2022-10-11T04:56:34.797Z,6.60
2022-10-11T04:59:04.219Z,5.50
2022-10-11T05:01:32.122Z,6.90
2022-10-11T05:04:00.187Z,5.80
2022-10-11T05:06:28.058Z,6.70
2022-10-11T05:08:55.991Z,6.30
2022-10-11T05:11:23.861Z,5.90
2022-10-11T05:13:51.701Z,5.50
2022-10-11T05:16:20.929Z,6.40
2022-10-11T05:18:48.961Z,5.50
2022-10-11T05:21:19.266Z,6.20
2022-10-11T05:23:48.328Z,5.40
2022-10-11T05:26:16.847Z,5.60
2022-10-11T05:28:44.915Z,5.30
2022-10-11T05:31:12.818Z,5.30
2022-10-11T05:33:42.283Z,6.70
2022-10-11T05:36:10.329Z,5.30
2022-10-11T05:38:39.206Z,5.30
2022-10-11T05:41:08.980Z,5.30
2022-10-11T05:43:37.157Z,5.30
2022-10-11T05:46:05.484Z,5.60
2022-10-11T05:48:33.619Z,5.40
2022-10-11T05:51:03.929Z,5.40
2022-10-11T05:53:32.377Z,5.40
2022-10-11T05:56:01.032Z,5.40
2022-10-11T05:58:29.394Z,5.40
2022-10-11T06:00:57.711Z,5.40
2022-10-11T06:03:25.890Z,5.50
2022-10-11T06:06:03.237Z,5.50
2022-10-11T06:08:33.622Z,5.50
2022-10-11T06:11:12.882Z,5.60
2022-10-11T06:13:40.798Z,5.60
2022-10-11T06:16:09.073Z,6.40
2022-10-11T06:18:37.184Z,5.70
2022-10-11T06:21:05.366Z,5.80
2022-10-11T06:23:34.543Z,5.70
2022-10-11T06:26:05.680Z,6.20
2022-10-11T06:28:35.811Z,7.00
2022-10-11T06:31:05.582Z,5.90
2022-10-11T06:33:33.628Z,5.90
2022-10-11T06:36:03.745Z,5.90
2022-10-11T06:38:31.784Z,6.00
2022-10-11T06:41:10.266Z,6.90
2022-10-11T06:43:38.144Z,6.00
2022-10-11T06:46:06.807Z,6.10
2022-10-11T06:48:35.098Z,6.00
2022-10-11T06:51:03.183Z,6.10
2022-10-11T06:53:31.036Z,6.10
2022-10-11T06:56:05.105Z,6.70
2022-10-11T06:58:33.401Z,6.20
2022-10-11T07:01:02.398Z,6.30
2022-10-11T07:03:30.870Z,6.30
2022-10-11T07:06:02.769Z,6.40
2022-10-11T07:08:30.857Z,6.90
2022-10-11T07:11:01.763Z,6.60
2022-10-11T07:13:31.007Z,7.40
2022-10-11T07:16:01.120Z,7.20
2022-10-11T07:18:29.055Z,6.80
2022-10-11T07:20:56.885Z,7.00
2022-10-11T07:23:24.963Z,7.10
2022-10-11T07:25:54.597Z,7.20
2022-10-11T07:28:22.929Z,7.40
2022-10-11T07:30:52.430Z,7.50
2022-10-11T07:33:20.258Z,7.60
2022-10-11T07:35:48.657Z,7.80
2022-10-11T07:38:17.691Z,7.90
2022-10-11T07:40:47.163Z,8.00
2022-10-11T07:43:15.140Z,8.10
2022-10-11T07:45:45.358Z,8.20
2022-10-11T07:48:14.635Z,8.30
2022-10-11T07:50:43.170Z,8.40
2022-10-11T07:53:11.103Z,8.50
2022-10-11T07:55:40.746Z,8.60
2022-10-11T07:58:09.481Z,8.70
2022-10-11T08:00:37.614Z,8.80
2022-10-11T08:03:06.944Z,8.90
2022-10-11T08:05:38.951Z,9.10
2022-10-11T08:08:06.902Z,9.20
2022-10-11T08:10:39.356Z,9.60
2022-10-11T08:13:07.333Z,9.40
2022-10-11T08:15:35.214Z,9.50
2022-10-11T08:18:03.031Z,9.70
2022-10-11T08:20:33.057Z,9.80
2022-10-11T08:23:02.303Z,9.90
2022-10-11T08:25:30.221Z,10.00
2022-10-11T08:27:58.359Z,10.10
2022-10-11T08:30:26.192Z,10.20
2022-10-11T08:32:54.060Z,10.30
2022-10-11T08:35:21.947Z,10.50
2022-10-11T08:37:49.808Z,10.50
2022-10-11T08:40:21.944Z,10.70
2022-10-11T08:42:56.896Z,10.70
2022-10-11T08:45:32.151Z,10.90
2022-10-11T08:48:07.931Z,11.00
2022-10-11T08:50:37.048Z,11.10
2022-10-11T08:53:08.842Z,11.30
2022-10-11T08:55:45.049Z,11.40
2022-10-11T08:58:17.189Z,11.50
2022-10-11T09:00:48.034Z,11.60
2022-10-11T09:03:29.382Z,12.40
2022-10-11T09:06:08.614Z,11.80
2022-10-11T09:08:48.995Z,12.00
2022-10-11T09:11:27.056Z,12.50
2022-10-11T09:14:21.551Z,12.30
2022-10-11T09:17:03.305Z,12.50
2022-10-11T09:19:47.769Z,13.90
2022-10-11T09:22:28.089Z,12.80
2022-10-11T09:25:12.532Z,13.00
2022-10-11T09:28:02.478Z,13.20
2022-10-11T09:30:31.720Z,13.40
2022-10-11T09:33:11.442Z,13.60
2022-10-11T09:35:43.765Z,13.70
2022-10-11T09:38:19.702Z,14.10
2022-10-11T09:40:59.883Z,13.90
2022-10-11T09:43:29.127Z,14.10
2022-10-11T09:45:57.099Z,14.20
2022-10-11T09:48:28.579Z,15.40
2022-10-11T09:51:03.203Z,14.90
2022-10-11T09:53:52.979Z,15.30
2022-10-11T09:56:21.432Z,14.70
2022-10-11T09:59:08.233Z,15.70
2022-10-11T10:01:36.933Z,15.20
2022-10-11T10:04:10.274Z,15.20
2022-10-11T10:06:39.110Z,15.30
2022-10-11T10:09:28.362Z,15.40
2022-10-11T10:11:57.622Z,15.50
2022-10-11T10:14:30.127Z,15.60
2022-10-11T10:17:04.231Z,15.60
2022-10-11T10:19:44.762Z,16.00
2022-10-11T10:22:19.591Z,15.70
2022-10-11T10:24:49.942Z,15.80
2022-10-11T10:27:21.874Z,16.00
2022-10-11T10:30:14.714Z,15.90
2022-10-11T10:32:49.767Z,15.90
2022-10-11T10:35:28.212Z,15.90
2022-10-11T10:38:06.251Z,15.90
2022-10-11T10:40:40.440Z,15.90
2022-10-11T10:43:15.505Z,15.90
2022-10-11T10:46:07.135Z,15.90
2022-10-11T10:49:19.095Z,16.00
2022-10-11T10:51:42.677Z,16.10
2022-10-11T10:54:23.464Z,16.00
2022-10-11T10:56:56.681Z,15.90
2022-10-11T10:59:40.689Z,15.80
2022-10-11T11:02:39.002Z,15.70
2022-10-11T11:05:18.838Z,15.80
2022-10-11T11:07:51.292Z,15.70
2022-10-11T11:10:22.737Z,15.80
2022-10-11T11:13:02.437Z,15.80
2022-10-11T11:15:38.188Z,16.10
2022-10-11T11:18:20.558Z,15.90
2022-10-11T11:20:59.713Z,16.10
2022-10-11T11:23:35.118Z,15.80
2022-10-11T11:26:13.022Z,15.80
2022-10-11T11:29:00.906Z,15.70
2022-10-11T11:31:43.055Z,16.00
2022-10-11T11:34:21.017Z,15.60
2022-10-11T11:36:52.913Z,15.70
2022-10-11T11:39:24.295Z,15.80
2022-10-11T11:41:57.547Z,15.90
2022-10-11T11:44:31.738Z,16.10
2022-10-11T11:47:04.203Z,16.00
2022-10-11T11:49:36.717Z,16.00
2022-10-11T11:52:07.689Z,16.00
2022-10-11T11:54:50.422Z,16.00
2022-10-11T11:57:28.868Z,15.90
2022-10-11T12:00:03.079Z,16.00
2022-10-11T12:02:40.069Z,16.10
2022-10-11T12:05:10.730Z,16.10
2022-10-11T12:07:51.056Z,15.90
2022-10-11T12:10:27.771Z,16.10
2022-10-11T12:13:19.021Z,16.10
2022-10-11T12:15:59.959Z,16.20
2022-10-11T12:18:29.055Z,16.20
2022-10-11T12:21:06.197Z,16.30
2022-10-11T12:23:43.801Z,16.40
2022-10-11T12:26:40.353Z,16.40
2022-10-11T12:29:43.306Z,16.30
2022-10-11T12:32:53.316Z,16.30
2022-10-11T12:35:55.852Z,16.40
2022-10-11T12:38:26.146Z,16.50
2022-10-11T12:40:57.037Z,16.50
2022-10-11T12:43:57.046Z,16.40
2022-10-11T12:47:13.730Z,16.50
2022-10-11T12:49:56.470Z,16.60
2022-10-11T12:52:33.475Z,16.60
2022-10-11T12:55:19.809Z,16.60
2022-10-11T12:58:24.106Z,16.60
2022-10-11T13:01:21.602Z,16.60
2022-10-11T13:03:58.599Z,16.60
2022-10-11T13:06:28.919Z,16.50
2022-10-11T13:09:00.848Z,16.60
2022-10-11T13:11:33.288Z,16.60
2022-10-11T13:14:06.733Z,16.70
2022-10-11T13:16:48.926Z,16.70
2022-10-11T13:19:22.446Z,16.70
2022-10-11T13:21:52.815Z,16.60
2022-10-11T13:24:21.266Z,16.60
2022-10-11T13:26:51.683Z,16.60
2022-10-11T13:29:29.884Z,16.50
2022-10-11T13:31:57.859Z,17.70
2022-10-11T13:34:29.562Z,16.60
2022-10-11T13:37:00.925Z,16.70
2022-10-11T13:39:31.472Z,16.60
2022-10-11T13:42:00.253Z,16.50
2022-10-11T13:44:28.473Z,16.40
2022-10-11T13:46:56.427Z,16.30
2022-10-11T13:49:37.035Z,16.20
2022-10-11T13:52:08.123Z,16.40
2022-10-11T13:55:14.749Z,16.30
2022-10-11T13:57:45.301Z,16.30
2022-10-11T14:00:25.410Z,16.30
2022-10-11T14:02:57.998Z,16.20
2022-10-11T14:05:31.519Z,16.20
2022-10-11T14:08:01.433Z,16.20
2022-10-11T14:10:29.838Z,16.40
2022-10-11T14:13:07.097Z,16.30
2022-10-11T14:15:36.486Z,16.70
2022-10-11T14:18:39.974Z,16.50
2022-10-11T14:21:31.267Z,16.60
2022-10-11T14:24:01.303Z,16.70
2022-10-11T14:26:34.001Z,16.70
2022-10-11T14:29:05.890Z,16.80
2022-10-11T14:31:36.791Z,16.90
2022-10-11T14:34:07.249Z,16.90
2022-10-11T14:36:36.417Z,16.90
2022-10-11T14:39:04.622Z,17.00
2022-10-11T14:41:32.491Z,17.00
2022-10-11T14:44:00.327Z,16.90
2022-10-11T14:46:28.467Z,17.00
2022-10-11T14:48:56.944Z,16.90
2022-10-11T14:51:29.997Z,16.90
2022-10-11T14:54:00.289Z,16.80
2022-10-11T14:56:28.308Z,16.90
2022-10-11T14:58:56.154Z,16.80
2022-10-11T15:01:24.142Z,16.70
2022-10-11T15:03:52.066Z,16.70
2022-10-11T15:06:23.189Z,16.80
2022-10-11T15:08:51.305Z,16.70
2022-10-11T15:11:22.734Z,16.70
2022-10-11T15:13:51.147Z,16.70
2022-10-11T15:16:21.881Z,16.70
2022-10-11T15:18:51.823Z,16.60
2022-10-11T15:21:22.075Z,16.60
2022-10-11T15:23:51.084Z,16.50
2022-10-11T15:26:22.507Z,16.50
2022-10-11T15:28:51.091Z,16.50
2022-10-11T15:31:19.224Z,16.40
2022-10-11T15:33:47.263Z,16.30
2022-10-11T15:36:17.272Z,16.20
2022-10-11T15:38:45.986Z,16.10
2022-10-11T15:41:15.545Z,16.00
2022-10-11T15:43:45.862Z,17.00
2022-10-11T15:46:17.400Z,16.00
2022-10-11T15:48:45.332Z,15.80
2022-10-11T15:51:13.514Z,15.80
2022-10-11T15:53:42.069Z,15.80
2022-10-11T15:56:15.080Z,15.70
2022-10-11T15:58:44.697Z,15.60
2022-10-11T16:01:16.256Z,15.60
2022-10-11T16:03:45.027Z,15.50
2022-10-11T16:06:13.594Z,15.40
2022-10-11T16:08:41.938Z,15.40
2022-10-11T16:11:11.022Z,15.30
2022-10-11T16:13:39.235Z,15.20
2022-10-11T16:16:10.332Z,15.00
2022-10-11T16:18:38.971Z,14.90
2022-10-11T16:21:08.857Z,14.80
2022-10-11T16:23:37.576Z,14.80
2022-10-11T16:26:09.275Z,14.60
2022-10-11T16:28:37.940Z,14.60
2022-10-11T16:31:10.859Z,14.50
2022-10-11T16:33:45.736Z,14.40
2022-10-11T16:36:35.848Z,14.50
2022-10-11T16:39:06.974Z,14.30
2022-10-11T16:41:34.911Z,14.20
2022-10-11T16:44:05.475Z,14.00
2022-10-11T16:46:35.148Z,13.90
2022-10-11T16:49:03.015Z,13.90
2022-10-11T16:51:30.868Z,13.80
2022-10-11T16:53:59.018Z,13.70
2022-10-11T16:56:27.559Z,13.60
2022-10-11T16:58:55.578Z,13.60
2022-10-11T17:01:23.792Z,13.40
2022-10-11T17:03:53.294Z,13.30
2022-10-11T17:06:21.749Z,13.20
2022-10-11T17:08:49.771Z,13.10
2022-10-11T17:11:18.420Z,13.00
2022-10-11T17:13:46.982Z,12.90
2022-10-11T17:16:15.139Z,12.80
2022-10-11T17:18:43.031Z,12.80
2022-10-11T17:21:14.634Z,12.60
2022-10-11T17:23:43.283Z,12.40
2022-10-11T17:26:15.263Z,12.30
2022-10-11T17:28:43.347Z,12.20
2022-10-11T17:31:11.923Z,12.10
2022-10-11T17:33:39.929Z,12.00
2022-10-11T17:36:17.730Z,11.80
2022-10-11T17:38:45.652Z,11.70
2022-10-11T17:41:13.805Z,11.60
2022-10-11T17:43:42.084Z,11.50
2022-10-11T17:46:12.500Z,11.40
2022-10-11T17:48:40.537Z,11.20
2022-10-11T17:51:10.285Z,11.10
2022-10-11T17:53:40.289Z,11.00
2022-10-11T17:56:14.606Z,11.70
2022-10-11T17:58:42.655Z,10.90
2022-10-11T18:01:13.374Z,10.70
2022-10-11T18:03:42.279Z,10.70
2022-10-11T18:06:11.728Z,10.60
2022-10-11T18:08:41.750Z,10.50
2022-10-11T18:11:14.591Z,10.50
2022-10-11T18:13:46.070Z,10.40
2022-10-11T18:16:14.862Z,10.30
2022-10-11T18:18:43.287Z,10.20
2022-10-11T18:21:11.354Z,10.10
2022-10-11T18:23:41.003Z,10.10
2022-10-11T18:26:13.320Z,10.00
2022-10-11T18:28:41.929Z,9.90
2022-10-11T18:31:13.211Z,9.80
2022-10-11T18:33:42.553Z,9.80
2022-10-11T18:36:13.216Z,9.70
2022-10-11T18:38:46.496Z,9.60
2022-10-11T18:41:16.177Z,9.60
2022-10-11T18:43:44.559Z,9.50
2022-10-11T18:46:14.434Z,9.40
2022-10-11T18:48:43.232Z,9.60
2022-10-11T18:51:14.109Z,9.30
2022-10-11T18:53:43.595Z,9.20
2022-10-11T18:56:12.800Z,10.60
2022-10-11T18:58:41.782Z,9.10
2022-10-11T19:01:12.100Z,9.00
2022-10-11T19:03:40.338Z,8.90
2022-10-11T19:06:11.217Z,8.90
2022-10-11T19:08:40.177Z,8.80
2022-10-11T19:11:10.546Z,8.70
2022-10-11T19:13:38.464Z,8.60
2022-10-11T19:16:08.576Z,8.60
2022-10-11T19:18:43.172Z,8.50
2022-10-11T19:21:14.416Z,8.40
2022-10-11T19:23:44.098Z,8.30
2022-10-11T19:26:15.504Z,8.30
2022-10-11T19:28:43.611Z,8.20
2022-10-11T19:31:16.140Z,8.10
2022-10-11T19:33:44.990Z,8.10
2022-10-11T19:36:14.638Z,8.00
2022-10-11T19:38:46.035Z,7.90
2022-10-11T19:41:17.463Z,7.90
2022-10-11T19:43:45.708Z,7.80
2022-10-11T19:46:27.323Z,7.70
2022-10-11T19:49:01.294Z,7.70
2022-10-11T19:51:34.597Z,7.60
2022-10-11T19:54:03.865Z,7.60
2022-10-11T19:56:34.443Z,7.50
2022-10-11T19:59:02.900Z,7.50
2022-10-11T20:01:32.340Z,7.50
2022-10-11T20:04:02.223Z,7.40
2022-10-11T20:06:35.863Z,7.40
2022-10-11T20:09:27.850Z,7.40
2022-10-11T20:11:55.508Z,7.40
2022-10-11T20:14:23.571Z,7.30
2022-10-11T20:16:51.562Z,7.20
2022-10-11T20:19:19.734Z,7.20
2022-10-11T20:21:48.768Z,7.10
2022-10-11T20:24:16.666Z,7.10
2022-10-11T20:26:44.538Z,7.00
2022-10-11T20:29:13.787Z,7.00
2022-10-11T20:31:42.776Z,6.90
2022-10-11T20:34:11.286Z,6.90
2022-10-11T20:36:39.302Z,6.90
2022-10-11T20:39:07.739Z,6.80
2022-10-11T20:41:39.645Z,6.70
2022-10-11T20:44:08.779Z,6.70
2022-10-11T20:46:39.665Z,6.70
2022-10-11T20:49:09.399Z,7.10
2022-10-11T20:51:39.014Z,7.40
2022-10-11T20:54:07.238Z,6.60
2022-10-11T20:56:35.674Z,7.20
2022-10-11T20:59:03.617Z,6.50
2022-10-11T21:01:34.319Z,7.40
2022-10-11T21:04:03.862Z,6.40
2022-10-11T21:06:33.129Z,6.40
2022-10-11T21:09:01.820Z,6.30
2022-10-11T21:11:31.370Z,7.10
2022-10-11T21:14:00.144Z,7.00
2022-10-11T21:16:28.854Z,6.30
2022-10-11T21:18:58.673Z,7.10
2022-10-11T21:21:29.396Z,6.20
2022-10-11T21:23:58.265Z,6.10
2022-10-11T21:26:27.387Z,6.70
2022-10-11T21:28:55.446Z,6.00
2022-10-11T21:31:24.367Z,7.00
2022-10-11T21:33:52.583Z,5.90
2022-10-11T21:36:22.585Z,5.90
2022-10-11T21:38:52.651Z,6.00
2022-10-11T21:41:22.251Z,5.80
2022-10-11T21:43:50.516Z,5.70
2022-10-11T21:46:20.903Z,5.60
2022-10-11T21:48:49.931Z,5.60
2022-10-11T21:51:21.138Z,6.60
2022-10-11T21:53:49.125Z,5.60
2022-10-11T21:56:18.396Z,5.90
2022-10-11T21:58:48.505Z,5.70
2022-10-11T22:01:17.188Z,5.50
2022-10-11T22:03:45.677Z,5.40
2022-10-11T22:06:14.203Z,5.30
2022-10-11T22:08:42.666Z,5.30
2022-10-11T22:11:11.117Z,5.30
2022-10-11T22:13:40.730Z,5.50
2022-10-11T22:16:11.042Z,5.20
2022-10-11T22:18:40.041Z,5.20
2022-10-11T22:21:11.832Z,5.10
2022-10-11T22:23:39.821Z,5.10
2022-10-11T22:26:10.969Z,5.10
2022-10-11T22:28:40.752Z,5.10
2022-10-11T22:31:10.166Z,5.00
2022-10-11T22:33:38.230Z,6.10
2022-10-11T22:36:08.807Z,5.00
2022-10-11T22:38:37.336Z,5.00
2022-10-11T22:41:05.306Z,5.80
2022-10-11T22:43:33.711Z,4.90
2022-10-11T22:46:03.206Z,4.90
2022-10-11T22:48:31.140Z,5.70
2022-10-11T22:50:59.007Z,4.80
2022-10-11T22:53:27.012Z,4.80
2022-10-11T22:55:54.877Z,4.80
2022-10-11T22:58:22.839Z,4.70
2022-10-11T23:00:50.759Z,4.70
2022-10-11T23:03:20.242Z,4.60
2022-10-11T23:05:55.611Z,4.60
2022-10-11T23:08:23.652Z,4.60
2022-10-11T23:10:51.502Z,4.50
2022-10-11T23:13:19.452Z,4.50
2022-10-11T23:15:47.413Z,4.50
2022-10-11T23:18:16.790Z,4.40
2022-10-11T23:20:46.026Z,4.40
2022-10-11T23:23:13.879Z,4.40
2022-10-11T23:25:41.755Z,4.40
2022-10-11T23:28:09.649Z,4.30
2022-10-11T23:30:40.254Z,4.70
2022-10-11T23:33:08.144Z,4.30
2022-10-11T23:35:36.523Z,5.90
2022-10-11T23:38:05.747Z,4.20
2022-10-11T23:40:33.620Z,4.20
2022-10-11T23:43:01.454Z,4.20
2022-10-11T23:45:29.307Z,4.10
2022-10-11T23:47:57.136Z,4.10
2022-10-11T23:50:25.015Z,4.10
2022-10-11T23:52:52.843Z,4.10
2022-10-11T23:55:22.022Z,4.00
2022-10-11T23:57:49.855Z,4.00
